sensor_id;sensor_type;location;lat;lon;timestamp;P1;durP1;ratioP1;P2;durP2;ratioP2
19030;SDS011;9648;51.130;13.978;2022-08-25T00:02:00;18.13;;;14.00;;
19030;SDS011;9648;51.130;13.978;2022-08-25T00:04:29;15.27;;;12.63;;
19030;SDS011;9648;51.130;13.978;2022-08-25T00:06:56;17.33;;;13.45;;
19030;SDS011;9648;51.130;13.978;2022-08-25T00:09:24;18.33;;;14.18;;
19030;SDS011;9648;51.130;13.978;2022-08-25T00:11:54;16.42;;;13.65;;
19030;SDS011;9648;51.130;13.978;2022-08-25T00:14:22;15.95;;;13.40;;
19030;SDS011;9648;51.130;13.978;2022-08-25T00:16:51;18.05;;;14.30;;
19030;SDS011;9648;51.130;13.978;2022-08-25T00:19:19;17.60;;;14.90;;
19030;SDS011;9648;51.130;13.978;2022-08-25T00:21:47;17.85;;;14.70;;
19030;SDS011;9648;51.130;13.978;2022-08-25T00:24:15;14.75;;;13.13;;
19030;SDS011;9648;51.130;13.978;2022-08-25T00:26:43;16.23;;;12.90;;
19030;SDS011;9648;51.130;13.978;2022-08-25T00:29:13;16.95;;;13.35;;
19030;SDS011;9648;51.130;13.978;2022-08-25T00:31:40;14.52;;;12.77;;
19030;SDS011;9648;51.130;13.978;2022-08-25T00:34:08;14.07;;;12.65;;
19030;SDS011;9648;51.130;13.978;2022-08-25T00:36:37;14.95;;;13.00;;
19030;SDS011;9648;51.130;13.978;2022-08-25T00:39:04;17.50;;;14.02;;
19030;SDS011;9648;51.130;13.978;2022-08-25T00:41:33;18.42;;;13.48;;
19030;SDS011;9648;51.130;13.978;2022-08-25T00:44:01;17.33;;;13.90;;
19030;SDS011;9648;51.130;13.978;2022-08-25T00:46:32;19.93;;;13.60;;
19030;SDS011;9648;51.130;13.978;2022-08-25T00:49:01;15.52;;;13.07;;
19030;SDS011;9648;51.130;13.978;2022-08-25T00:51:32;16.42;;;13.10;;
19030;SDS011;9648;51.130;13.978;2022-08-25T00:54:04;17.35;;;14.18;;
19030;SDS011;9648;51.130;13.978;2022-08-25T00:56:32;14.45;;;12.95;;
19030;SDS011;9648;51.130;13.978;2022-08-25T00:58:59;15.90;;;13.52;;
19030;SDS011;9648;51.130;13.978;2022-08-25T01:01:27;16.73;;;13.63;;
19030;SDS011;9648;51.130;13.978;2022-08-25T01:03:56;16.80;;;13.93;;
19030;SDS011;9648;51.130;13.978;2022-08-25T01:06:22;14.88;;;13.27;;
19030;SDS011;9648;51.130;13.978;2022-08-25T01:08:50;16.15;;;13.23;;
19030;SDS011;9648;51.130;13.978;2022-08-25T01:11:18;16.00;;;14.03;;
19030;SDS011;9648;51.130;13.978;2022-08-25T01:13:46;16.42;;;14.68;;
19030;SDS011;9648;51.130;13.978;2022-08-25T01:16:17;18.27;;;14.85;;
19030;SDS011;9648;51.130;13.978;2022-08-25T01:18:45;19.02;;;15.23;;
19030;SDS011;9648;51.130;13.978;2022-08-25T01:21:16;21.88;;;16.25;;
19030;SDS011;9648;51.130;13.978;2022-08-25T01:23:45;19.67;;;15.60;;
19030;SDS011;9648;51.130;13.978;2022-08-25T01:26:15;18.23;;;15.52;;
19030;SDS011;9648;51.130;13.978;2022-08-25T01:28:43;18.63;;;15.73;;
19030;SDS011;9648;51.130;13.978;2022-08-25T01:31:30;19.35;;;15.68;;
19030;SDS011;9648;51.130;13.978;2022-08-25T01:33:59;19.07;;;14.97;;
19030;SDS011;9648;51.130;13.978;2022-08-25T01:36:28;16.67;;;14.63;;
19030;SDS011;9648;51.130;13.978;2022-08-25T01:38:55;19.23;;;14.40;;
19030;SDS011;9648;51.130;13.978;2022-08-25T01:41:25;17.92;;;15.35;;
19030;SDS011;9648;51.130;13.978;2022-08-25T01:44:01;17.98;;;14.77;;
19030;SDS011;9648;51.130;13.978;2022-08-25T01:46:30;16.60;;;13.90;;
19030;SDS011;9648;51.130;13.978;2022-08-25T01:48:58;15.80;;;14.02;;
19030;SDS011;9648;51.130;13.978;2022-08-25T01:51:27;17.48;;;14.55;;
19030;SDS011;9648;51.130;13.978;2022-08-25T01:53:58;16.65;;;14.00;;
19030;SDS011;9648;51.130;13.978;2022-08-25T01:56:25;15.50;;;13.33;;
19030;SDS011;9648;51.130;13.978;2022-08-25T01:58:52;15.32;;;13.35;;
19030;SDS011;9648;51.130;13.978;2022-08-25T02:01:20;17.38;;;14.18;;
19030;SDS011;9648;51.130;13.978;2022-08-25T02:03:49;15.82;;;13.63;;
19030;SDS011;9648;51.130;13.978;2022-08-25T02:06:18;15.20;;;12.80;;
19030;SDS011;9648;51.130;13.978;2022-08-25T02:08:50;20.52;;;13.63;;
19030;SDS011;9648;51.130;13.978;2022-08-25T02:11:17;16.00;;;13.05;;
19030;SDS011;9648;51.130;13.978;2022-08-25T02:13:43;16.10;;;13.23;;
19030;SDS011;9648;51.130;13.978;2022-08-25T02:16:13;15.55;;;13.75;;
19030;SDS011;9648;51.130;13.978;2022-08-25T02:18:44;14.70;;;13.20;;
19030;SDS011;9648;51.130;13.978;2022-08-25T02:21:11;15.32;;;13.63;;
19030;SDS011;9648;51.130;13.978;2022-08-25T02:23:38;16.08;;;13.55;;
19030;SDS011;9648;51.130;13.978;2022-08-25T02:26:07;15.45;;;13.38;;
19030;SDS011;9648;51.130;13.978;2022-08-25T02:28:34;14.20;;;12.70;;
19030;SDS011;9648;51.130;13.978;2022-08-25T02:31:02;16.73;;;14.13;;
19030;SDS011;9648;51.130;13.978;2022-08-25T02:33:29;16.08;;;13.82;;
19030;SDS011;9648;51.130;13.978;2022-08-25T02:35:56;17.67;;;14.40;;
19030;SDS011;9648;51.130;13.978;2022-08-25T02:38:24;17.02;;;14.32;;
19030;SDS011;9648;51.130;13.978;2022-08-25T02:40:51;15.13;;;13.48;;
19030;SDS011;9648;51.130;13.978;2022-08-25T02:43:20;17.85;;;14.02;;
19030;SDS011;9648;51.130;13.978;2022-08-25T02:45:46;17.23;;;13.90;;
19030;SDS011;9648;51.130;13.978;2022-08-25T02:48:13;16.23;;;13.80;;
19030;SDS011;9648;51.130;13.978;2022-08-25T02:50:40;14.35;;;12.68;;
19030;SDS011;9648;51.130;13.978;2022-08-25T02:53:11;17.10;;;13.23;;
19030;SDS011;9648;51.130;13.978;2022-08-25T02:55:38;15.52;;;13.48;;
19030;SDS011;9648;51.130;13.978;2022-08-25T02:58:04;14.13;;;12.40;;
19030;SDS011;9648;51.130;13.978;2022-08-25T03:00:34;14.70;;;12.70;;
19030;SDS011;9648;51.130;13.978;2022-08-25T03:03:01;15.63;;;13.70;;
19030;SDS011;9648;51.130;13.978;2022-08-25T03:05:28;13.93;;;12.30;;
19030;SDS011;9648;51.130;13.978;2022-08-25T03:07:55;15.40;;;12.40;;
19030;SDS011;9648;51.130;13.978;2022-08-25T03:10:21;14.23;;;12.73;;
19030;SDS011;9648;51.130;13.978;2022-08-25T03:12:48;17.20;;;12.40;;
19030;SDS011;9648;51.130;13.978;2022-08-25T03:15:15;15.55;;;13.68;;
19030;SDS011;9648;51.130;13.978;2022-08-25T03:17:44;14.10;;;11.90;;
19030;SDS011;9648;51.130;13.978;2022-08-25T03:20:13;14.23;;;12.60;;
19030;SDS011;9648;51.130;13.978;2022-08-25T03:22:40;14.88;;;13.18;;
19030;SDS011;9648;51.130;13.978;2022-08-25T03:25:08;14.55;;;12.77;;
19030;SDS011;9648;51.130;13.978;2022-08-25T03:27:52;14.88;;;13.23;;
19030;SDS011;9648;51.130;13.978;2022-08-25T03:30:19;17.10;;;14.03;;
19030;SDS011;9648;51.130;13.978;2022-08-25T03:32:47;15.57;;;13.68;;
19030;SDS011;9648;51.130;13.978;2022-08-25T03:35:14;15.20;;;13.55;;
19030;SDS011;9648;51.130;13.978;2022-08-25T03:37:41;14.52;;;12.55;;
19030;SDS011;9648;51.130;13.978;2022-08-25T03:40:09;15.02;;;13.15;;
19030;SDS011;9648;51.130;13.978;2022-08-25T03:42:39;15.20;;;13.13;;
19030;SDS011;9648;51.130;13.978;2022-08-25T03:45:07;17.53;;;13.53;;
19030;SDS011;9648;51.130;13.978;2022-08-25T03:47:35;15.80;;;13.40;;
19030;SDS011;9648;51.130;13.978;2022-08-25T03:50:04;16.05;;;13.07;;
19030;SDS011;9648;51.130;13.978;2022-08-25T03:52:32;15.55;;;13.27;;
19030;SDS011;9648;51.130;13.978;2022-08-25T03:54:59;16.95;;;13.23;;
19030;SDS011;9648;51.130;13.978;2022-08-25T03:57:29;14.88;;;12.98;;
19030;SDS011;9648;51.130;13.978;2022-08-25T03:59:56;15.65;;;13.07;;
19030;SDS011;9648;51.130;13.978;2022-08-25T04:02:22;16.37;;;13.00;;
19030;SDS011;9648;51.130;13.978;2022-08-25T04:04:49;13.95;;;12.38;;
19030;SDS011;9648;51.130;13.978;2022-08-25T04:07:17;13.97;;;11.90;;
19030;SDS011;9648;51.130;13.978;2022-08-25T04:09:44;14.43;;;12.45;;
19030;SDS011;9648;51.130;13.978;2022-08-25T04:12:11;14.00;;;12.43;;
19030;SDS011;9648;51.130;13.978;2022-08-25T04:14:38;16.73;;;12.30;;
19030;SDS011;9648;51.130;13.978;2022-08-25T04:17:05;13.95;;;12.05;;
19030;SDS011;9648;51.130;13.978;2022-08-25T04:19:32;14.77;;;12.77;;
19030;SDS011;9648;51.130;13.978;2022-08-25T04:21:59;14.88;;;12.48;;
19030;SDS011;9648;51.130;13.978;2022-08-25T04:24:27;17.38;;;12.70;;
19030;SDS011;9648;51.130;13.978;2022-08-25T04:26:54;14.20;;;12.70;;
19030;SDS011;9648;51.130;13.978;2022-08-25T04:29:21;15.90;;;13.30;;
19030;SDS011;9648;51.130;13.978;2022-08-25T04:31:49;14.20;;;12.63;;
19030;SDS011;9648;51.130;13.978;2022-08-25T04:34:17;15.07;;;13.48;;
19030;SDS011;9648;51.130;13.978;2022-08-25T04:36:46;14.10;;;12.57;;
19030;SDS011;9648;51.130;13.978;2022-08-25T04:39:14;15.73;;;12.75;;
19030;SDS011;9648;51.130;13.978;2022-08-25T04:41:45;15.50;;;13.40;;
19030;SDS011;9648;51.130;13.978;2022-08-25T04:44:12;15.38;;;13.73;;
19030;SDS011;9648;51.130;13.978;2022-08-25T04:46:39;15.02;;;12.90;;
19030;SDS011;9648;51.130;13.978;2022-08-25T04:49:06;15.47;;;13.60;;
19030;SDS011;9648;51.130;13.978;2022-08-25T04:51:35;15.40;;;13.45;;
19030;SDS011;9648;51.130;13.978;2022-08-25T04:54:05;15.43;;;13.23;;
19030;SDS011;9648;51.130;13.978;2022-08-25T04:56:34;13.63;;;11.93;;
19030;SDS011;9648;51.130;13.978;2022-08-25T04:59:03;13.88;;;12.45;;
19030;SDS011;9648;51.130;13.978;2022-08-25T05:01:31;14.63;;;12.85;;
19030;SDS011;9648;51.130;13.978;2022-08-25T05:03:59;14.60;;;13.10;;
19030;SDS011;9648;51.130;13.978;2022-08-25T05:06:28;15.85;;;14.15;;
19030;SDS011;9648;51.130;13.978;2022-08-25T05:08:56;15.25;;;13.60;;
19030;SDS011;9648;51.130;13.978;2022-08-25T05:11:24;14.13;;;12.73;;
19030;SDS011;9648;51.130;13.978;2022-08-25T05:13:52;16.42;;;13.52;;
19030;SDS011;9648;51.130;13.978;2022-08-25T05:16:22;18.58;;;13.45;;
19030;SDS011;9648;51.130;13.978;2022-08-25T05:18:50;14.43;;;12.90;;
19030;SDS011;9648;51.130;13.978;2022-08-25T05:21:19;14.50;;;13.00;;
19030;SDS011;9648;51.130;13.978;2022-08-25T05:23:47;14.57;;;12.50;;
19030;SDS011;9648;51.130;13.978;2022-08-25T05:26:14;14.30;;;12.75;;
19030;SDS011;9648;51.130;13.978;2022-08-25T05:28:43;13.73;;;12.32;;
19030;SDS011;9648;51.130;13.978;2022-08-25T05:31:11;14.68;;;13.10;;
19030;SDS011;9648;51.130;13.978;2022-08-25T05:33:40;15.27;;;13.13;;
19030;SDS011;9648;51.130;13.978;2022-08-25T05:36:09;14.63;;;12.57;;
19030;SDS011;9648;51.130;13.978;2022-08-25T05:38:38;14.57;;;12.90;;
19030;SDS011;9648;51.130;13.978;2022-08-25T05:41:06;13.38;;;11.98;;
19030;SDS011;9648;51.130;13.978;2022-08-25T05:43:35;12.98;;;11.57;;
19030;SDS011;9648;51.130;13.978;2022-08-25T05:46:03;13.55;;;11.77;;
19030;SDS011;9648;51.130;13.978;2022-08-25T05:48:30;13.20;;;11.88;;
19030;SDS011;9648;51.130;13.978;2022-08-25T05:51:00;15.93;;;13.38;;
19030;SDS011;9648;51.130;13.978;2022-08-25T05:53:29;14.07;;;12.57;;
19030;SDS011;9648;51.130;13.978;2022-08-25T05:55:57;16.30;;;13.50;;
19030;SDS011;9648;51.130;13.978;2022-08-25T05:58:25;16.08;;;14.38;;
19030;SDS011;9648;51.130;13.978;2022-08-25T06:00:53;15.52;;;13.82;;
19030;SDS011;9648;51.130;13.978;2022-08-25T06:03:20;17.50;;;14.07;;
19030;SDS011;9648;51.130;13.978;2022-08-25T06:05:46;19.23;;;14.75;;
19030;SDS011;9648;51.130;13.978;2022-08-25T06:08:14;16.60;;;14.75;;
19030;SDS011;9648;51.130;13.978;2022-08-25T06:10:41;19.17;;;15.48;;
19030;SDS011;9648;51.130;13.978;2022-08-25T06:13:08;20.48;;;16.25;;
19030;SDS011;9648;51.130;13.978;2022-08-25T06:15:34;17.00;;;15.25;;
19030;SDS011;9648;51.130;13.978;2022-08-25T06:18:01;18.88;;;16.73;;
19030;SDS011;9648;51.130;13.978;2022-08-25T06:20:28;20.27;;;16.92;;
19030;SDS011;9648;51.130;13.978;2022-08-25T06:22:56;20.25;;;16.55;;
19030;SDS011;9648;51.130;13.978;2022-08-25T06:25:25;17.88;;;15.10;;
19030;SDS011;9648;51.130;13.978;2022-08-25T06:27:52;18.13;;;15.63;;
19030;SDS011;9648;51.130;13.978;2022-08-25T06:30:20;19.15;;;16.25;;
19030;SDS011;9648;51.130;13.978;2022-08-25T06:32:48;17.08;;;15.20;;
19030;SDS011;9648;51.130;13.978;2022-08-25T06:35:15;20.38;;;17.98;;
19030;SDS011;9648;51.130;13.978;2022-08-25T06:37:45;19.13;;;16.85;;
19030;SDS011;9648;51.130;13.978;2022-08-25T06:40:12;17.92;;;15.95;;
19030;SDS011;9648;51.130;13.978;2022-08-25T06:42:45;18.57;;;16.50;;
19030;SDS011;9648;51.130;13.978;2022-08-25T06:45:12;21.23;;;17.02;;
19030;SDS011;9648;51.130;13.978;2022-08-25T06:47:39;20.00;;;17.15;;
19030;SDS011;9648;51.130;13.978;2022-08-25T06:50:07;19.48;;;17.48;;
19030;SDS011;9648;51.130;13.978;2022-08-25T06:52:34;22.10;;;18.10;;
19030;SDS011;9648;51.130;13.978;2022-08-25T06:55:01;20.27;;;18.05;;
19030;SDS011;9648;51.130;13.978;2022-08-25T06:57:28;20.33;;;17.52;;
19030;SDS011;9648;51.130;13.978;2022-08-25T06:59:57;21.02;;;16.85;;
19030;SDS011;9648;51.130;13.978;2022-08-25T07:02:23;22.23;;;18.48;;
19030;SDS011;9648;51.130;13.978;2022-08-25T07:04:50;20.25;;;17.80;;
19030;SDS011;9648;51.130;13.978;2022-08-25T07:07:17;21.43;;;17.93;;
19030;SDS011;9648;51.130;13.978;2022-08-25T07:09:45;22.83;;;18.80;;
19030;SDS011;9648;51.130;13.978;2022-08-25T07:12:12;24.33;;;19.45;;
19030;SDS011;9648;51.130;13.978;2022-08-25T07:14:38;22.88;;;20.42;;
19030;SDS011;9648;51.130;13.978;2022-08-25T07:17:06;24.93;;;18.03;;
19030;SDS011;9648;51.130;13.978;2022-08-25T07:19:33;31.45;;;20.55;;
19030;SDS011;9648;51.130;13.978;2022-08-25T07:22:00;30.20;;;20.25;;
19030;SDS011;9648;51.130;13.978;2022-08-25T07:24:26;22.73;;;17.30;;
19030;SDS011;9648;51.130;13.978;2022-08-25T07:26:53;32.08;;;18.20;;
19030;SDS011;9648;51.130;13.978;2022-08-25T07:29:20;22.33;;;16.02;;
19030;SDS011;9648;51.130;13.978;2022-08-25T07:31:49;24.52;;;17.02;;
19030;SDS011;9648;51.130;13.978;2022-08-25T07:34:17;24.23;;;13.57;;
19030;SDS011;9648;51.130;13.978;2022-08-25T07:37:02;18.40;;;12.07;;
19030;SDS011;9648;51.130;13.978;2022-08-25T07:39:29;22.73;;;14.53;;
19030;SDS011;9648;51.130;13.978;2022-08-25T07:41:57;16.35;;;11.98;;
19030;SDS011;9648;51.130;13.978;2022-08-25T07:44:25;16.08;;;11.85;;
19030;SDS011;9648;51.130;13.978;2022-08-25T07:46:52;19.17;;;11.68;;
19030;SDS011;9648;51.130;13.978;2022-08-25T07:49:21;19.88;;;13.88;;
19030;SDS011;9648;51.130;13.978;2022-08-25T07:51:49;16.98;;;12.13;;
19030;SDS011;9648;51.130;13.978;2022-08-25T07:54:17;22.48;;;12.75;;
19030;SDS011;9648;51.130;13.978;2022-08-25T07:56:43;17.53;;;12.00;;
19030;SDS011;9648;51.130;13.978;2022-08-25T07:59:10;20.52;;;12.65;;
19030;SDS011;9648;51.130;13.978;2022-08-25T08:01:37;19.17;;;12.15;;
19030;SDS011;9648;51.130;13.978;2022-08-25T08:04:05;21.20;;;13.32;;
19030;SDS011;9648;51.130;13.978;2022-08-25T08:06:33;21.80;;;13.00;;
19030;SDS011;9648;51.130;13.978;2022-08-25T08:08:59;17.30;;;11.20;;
19030;SDS011;9648;51.130;13.978;2022-08-25T08:11:27;14.13;;;10.57;;
19030;SDS011;9648;51.130;13.978;2022-08-25T08:13:55;22.27;;;11.43;;
19030;SDS011;9648;51.130;13.978;2022-08-25T08:16:23;18.45;;;11.55;;
19030;SDS011;9648;51.130;13.978;2022-08-25T08:18:52;15.87;;;9.77;;
19030;SDS011;9648;51.130;13.978;2022-08-25T08:21:19;15.32;;;8.77;;
19030;SDS011;9648;51.130;13.978;2022-08-25T08:23:49;20.55;;;9.50;;
19030;SDS011;9648;51.130;13.978;2022-08-25T08:26:18;15.15;;;8.85;;
19030;SDS011;9648;51.130;13.978;2022-08-25T08:28:45;12.38;;;7.40;;
19030;SDS011;9648;51.130;13.978;2022-08-25T08:31:11;17.00;;;7.75;;
19030;SDS011;9648;51.130;13.978;2022-08-25T08:33:39;16.77;;;8.10;;
19030;SDS011;9648;51.130;13.978;2022-08-25T08:36:08;14.48;;;7.60;;
19030;SDS011;9648;51.130;13.978;2022-08-25T08:38:37;20.80;;;8.05;;
19030;SDS011;9648;51.130;13.978;2022-08-25T08:41:08;16.38;;;7.57;;
19030;SDS011;9648;51.130;13.978;2022-08-25T08:44:11;16.83;;;7.68;;
19030;SDS011;9648;51.130;13.978;2022-08-25T08:46:45;21.00;;;7.27;;
19030;SDS011;9648;51.130;13.978;2022-08-25T08:49:19;16.70;;;6.80;;
19030;SDS011;9648;51.130;13.978;2022-08-25T08:51:52;15.88;;;7.55;;
19030;SDS011;9648;51.130;13.978;2022-08-25T08:54:24;20.30;;;7.43;;
19030;SDS011;9648;51.130;13.978;2022-08-25T08:57:02;17.13;;;7.20;;
19030;SDS011;9648;51.130;13.978;2022-08-25T08:59:33;17.35;;;7.28;;
19030;SDS011;9648;51.130;13.978;2022-08-25T09:02:12;19.83;;;7.28;;
19030;SDS011;9648;51.130;13.978;2022-08-25T09:04:44;19.13;;;7.65;;
19030;SDS011;9648;51.130;13.978;2022-08-25T09:07:15;19.23;;;7.57;;
19030;SDS011;9648;51.130;13.978;2022-08-25T09:09:45;19.90;;;7.75;;
19030;SDS011;9648;51.130;13.978;2022-08-25T09:12:14;21.63;;;7.38;;
19030;SDS011;9648;51.130;13.978;2022-08-25T09:14:52;20.67;;;7.72;;
19030;SDS011;9648;51.130;13.978;2022-08-25T09:17:34;22.08;;;8.20;;
19030;SDS011;9648;51.130;13.978;2022-08-25T09:20:15;17.65;;;7.93;;
19030;SDS011;9648;51.130;13.978;2022-08-25T09:22:55;19.45;;;8.05;;
19030;SDS011;9648;51.130;13.978;2022-08-25T09:25:32;18.55;;;8.13;;
19030;SDS011;9648;51.130;13.978;2022-08-25T09:28:06;18.15;;;8.25;;
19030;SDS011;9648;51.130;13.978;2022-08-25T09:30:50;20.08;;;8.23;;
19030;SDS011;9648;51.130;13.978;2022-08-25T09:33:24;20.67;;;8.00;;
19030;SDS011;9648;51.130;13.978;2022-08-25T09:35:53;22.35;;;8.48;;
19030;SDS011;9648;51.130;13.978;2022-08-25T09:38:21;23.40;;;8.40;;
19030;SDS011;9648;51.130;13.978;2022-08-25T09:40:49;20.00;;;8.10;;
19030;SDS011;9648;51.130;13.978;2022-08-25T09:43:21;24.70;;;8.10;;
19030;SDS011;9648;51.130;13.978;2022-08-25T09:45:49;22.40;;;8.37;;
19030;SDS011;9648;51.130;13.978;2022-08-25T09:48:24;23.13;;;8.50;;
19030;SDS011;9648;51.130;13.978;2022-08-25T09:50:53;21.48;;;7.93;;
19030;SDS011;9648;51.130;13.978;2022-08-25T09:53:24;25.73;;;8.48;;
19030;SDS011;9648;51.130;13.978;2022-08-25T09:55:55;24.37;;;7.90;;
19030;SDS011;9648;51.130;13.978;2022-08-25T09:58:26;18.58;;;7.88;;
19030;SDS011;9648;51.130;13.978;2022-08-25T10:01:04;25.13;;;8.52;;
19030;SDS011;9648;51.130;13.978;2022-08-25T10:03:37;24.80;;;8.63;;
19030;SDS011;9648;51.130;13.978;2022-08-25T10:06:19;25.38;;;8.68;;
19030;SDS011;9648;51.130;13.978;2022-08-25T10:08:50;23.58;;;8.63;;
19030;SDS011;9648;51.130;13.978;2022-08-25T10:11:29;23.30;;;8.50;;
19030;SDS011;9648;51.130;13.978;2022-08-25T10:14:05;24.45;;;8.38;;
19030;SDS011;9648;51.130;13.978;2022-08-25T10:16:41;21.50;;;8.95;;
19030;SDS011;9648;51.130;13.978;2022-08-25T10:19:10;23.77;;;8.20;;
19030;SDS011;9648;51.130;13.978;2022-08-25T10:21:39;26.05;;;9.52;;
19030;SDS011;9648;51.130;13.978;2022-08-25T10:24:07;23.13;;;9.00;;
19030;SDS011;9648;51.130;13.978;2022-08-25T10:26:40;30.73;;;9.45;;
19030;SDS011;9648;51.130;13.978;2022-08-25T10:29:22;27.47;;;9.20;;
19030;SDS011;9648;51.130;13.978;2022-08-25T10:32:00;25.48;;;8.57;;
19030;SDS011;9648;51.130;13.978;2022-08-25T10:34:35;27.38;;;9.27;;
19030;SDS011;9648;51.130;13.978;2022-08-25T10:37:10;28.15;;;9.30;;
19030;SDS011;9648;51.130;13.978;2022-08-25T10:39:44;25.35;;;8.25;;
19030;SDS011;9648;51.130;13.978;2022-08-25T10:42:18;26.92;;;9.05;;
19030;SDS011;9648;51.130;13.978;2022-08-25T10:45:01;35.20;;;8.88;;
19030;SDS011;9648;51.130;13.978;2022-08-25T10:48:01;28.17;;;8.15;;
19030;SDS011;9648;51.130;13.978;2022-08-25T10:50:50;20.05;;;7.50;;
19030;SDS011;9648;51.130;13.978;2022-08-25T10:53:22;23.90;;;7.10;;
19030;SDS011;9648;51.130;13.978;2022-08-25T10:56:05;24.13;;;7.90;;
19030;SDS011;9648;51.130;13.978;2022-08-25T10:58:45;26.70;;;8.07;;
19030;SDS011;9648;51.130;13.978;2022-08-25T11:01:41;23.98;;;7.68;;
19030;SDS011;9648;51.130;13.978;2022-08-25T11:04:17;24.73;;;7.82;;
19030;SDS011;9648;51.130;13.978;2022-08-25T11:06:51;25.75;;;7.88;;
19030;SDS011;9648;51.130;13.978;2022-08-25T11:09:25;24.92;;;8.23;;
19030;SDS011;9648;51.130;13.978;2022-08-25T11:11:57;20.30;;;7.43;;
19030;SDS011;9648;51.130;13.978;2022-08-25T11:14:29;26.15;;;8.07;;
19030;SDS011;9648;51.130;13.978;2022-08-25T11:17:01;30.20;;;8.10;;
19030;SDS011;9648;51.130;13.978;2022-08-25T11:19:34;30.13;;;8.13;;
19030;SDS011;9648;51.130;13.978;2022-08-25T11:22:05;30.35;;;7.57;;
19030;SDS011;9648;51.130;13.978;2022-08-25T11:24:40;27.55;;;8.35;;
19030;SDS011;9648;51.130;13.978;2022-08-25T11:27:16;18.63;;;7.07;;
19030;SDS011;9648;51.130;13.978;2022-08-25T11:29:48;21.63;;;7.50;;
19030;SDS011;9648;51.130;13.978;2022-08-25T11:32:25;27.30;;;7.47;;
19030;SDS011;9648;51.130;13.978;2022-08-25T11:34:57;26.08;;;7.80;;
19030;SDS011;9648;51.130;13.978;2022-08-25T11:37:26;30.83;;;8.30;;
19030;SDS011;9648;51.130;13.978;2022-08-25T11:40:03;28.60;;;7.60;;
19030;SDS011;9648;51.130;13.978;2022-08-25T11:42:43;29.53;;;7.63;;
19030;SDS011;9648;51.130;13.978;2022-08-25T11:45:27;24.35;;;7.53;;
19030;SDS011;9648;51.130;13.978;2022-08-25T11:48:14;27.20;;;7.75;;
19030;SDS011;9648;51.130;13.978;2022-08-25T11:50:54;24.88;;;7.95;;
19030;SDS011;9648;51.130;13.978;2022-08-25T11:53:24;28.15;;;8.10;;
19030;SDS011;9648;51.130;13.978;2022-08-25T11:55:53;21.75;;;7.65;;
19030;SDS011;9648;51.130;13.978;2022-08-25T12:01:10;28.23;;;7.90;;
19030;SDS011;9648;51.130;13.978;2022-08-25T12:03:59;26.70;;;7.65;;
19030;SDS011;9648;51.130;13.978;2022-08-25T12:07:00;29.05;;;8.52;;
19030;SDS011;9648;51.130;13.978;2022-08-25T12:12:37;31.45;;;7.47;;
19030;SDS011;9648;51.130;13.978;2022-08-25T12:15:23;23.67;;;7.32;;
19030;SDS011;9648;51.130;13.978;2022-08-25T12:18:06;23.48;;;6.65;;
19030;SDS011;9648;51.130;13.978;2022-08-25T12:23:36;39.58;;;7.63;;
19030;SDS011;9648;51.130;13.978;2022-08-25T12:26:07;29.02;;;7.30;;
19030;SDS011;9648;51.130;13.978;2022-08-25T12:28:45;20.87;;;6.67;;
19030;SDS011;9648;51.130;13.978;2022-08-25T12:31:21;34.70;;;7.73;;
19030;SDS011;9648;51.130;13.978;2022-08-25T12:34:01;38.05;;;8.60;;
19030;SDS011;9648;51.130;13.978;2022-08-25T12:36:53;33.33;;;7.30;;
19030;SDS011;9648;51.130;13.978;2022-08-25T12:39:22;32.50;;;7.90;;
19030;SDS011;9648;51.130;13.978;2022-08-25T12:41:57;33.67;;;7.75;;
19030;SDS011;9648;51.130;13.978;2022-08-25T12:44:37;29.15;;;7.50;;
19030;SDS011;9648;51.130;13.978;2022-08-25T12:47:24;31.92;;;7.85;;
19030;SDS011;9648;51.130;13.978;2022-08-25T12:53:06;27.83;;;8.80;;
19030;SDS011;9648;51.130;13.978;2022-08-25T12:55:37;31.95;;;8.65;;
19030;SDS011;9648;51.130;13.978;2022-08-25T12:58:12;28.27;;;7.55;;
19030;SDS011;9648;51.130;13.978;2022-08-25T13:00:46;24.30;;;8.30;;
19030;SDS011;9648;51.130;13.978;2022-08-25T13:03:35;28.45;;;8.35;;
19030;SDS011;9648;51.130;13.978;2022-08-25T13:06:26;32.33;;;8.18;;
19030;SDS011;9648;51.130;13.978;2022-08-25T13:09:22;25.50;;;7.68;;
19030;SDS011;9648;51.130;13.978;2022-08-25T13:12:11;22.77;;;7.88;;
19030;SDS011;9648;51.130;13.978;2022-08-25T13:14:44;20.77;;;7.38;;
19030;SDS011;9648;51.130;13.978;2022-08-25T13:17:23;27.27;;;8.00;;
19030;SDS011;9648;51.130;13.978;2022-08-25T13:19:50;27.20;;;7.40;;
19030;SDS011;9648;51.130;13.978;2022-08-25T13:22:17;26.33;;;7.77;;
19030;SDS011;9648;51.130;13.978;2022-08-25T13:24:45;31.77;;;7.55;;
19030;SDS011;9648;51.130;13.978;2022-08-25T13:27:17;22.85;;;7.63;;
19030;SDS011;9648;51.130;13.978;2022-08-25T13:29:51;25.50;;;7.22;;
19030;SDS011;9648;51.130;13.978;2022-08-25T13:32:24;23.65;;;6.97;;
19030;SDS011;9648;51.130;13.978;2022-08-25T13:34:54;28.70;;;7.38;;
19030;SDS011;9648;51.130;13.978;2022-08-25T13:37:36;25.88;;;7.05;;
19030;SDS011;9648;51.130;13.978;2022-08-25T13:40:07;29.98;;;7.40;;
19030;SDS011;9648;51.130;13.978;2022-08-25T13:42:36;29.33;;;7.82;;
19030;SDS011;9648;51.130;13.978;2022-08-25T13:45:06;24.73;;;6.93;;
19030;SDS011;9648;51.130;13.978;2022-08-25T13:47:35;26.83;;;7.10;;
19030;SDS011;9648;51.130;13.978;2022-08-25T13:50:17;26.95;;;7.00;;
19030;SDS011;9648;51.130;13.978;2022-08-25T13:52:47;23.02;;;6.60;;
19030;SDS011;9648;51.130;13.978;2022-08-25T13:55:19;27.38;;;6.63;;
19030;SDS011;9648;51.130;13.978;2022-08-25T13:57:47;25.77;;;6.63;;
19030;SDS011;9648;51.130;13.978;2022-08-25T14:00:24;28.67;;;6.90;;
19030;SDS011;9648;51.130;13.978;2022-08-25T14:02:54;28.48;;;6.93;;
19030;SDS011;9648;51.130;13.978;2022-08-25T14:05:29;27.98;;;7.00;;
19030;SDS011;9648;51.130;13.978;2022-08-25T14:07:59;31.70;;;6.72;;
19030;SDS011;9648;51.130;13.978;2022-08-25T14:10:30;20.17;;;6.45;;
19030;SDS011;9648;51.130;13.978;2022-08-25T14:13:08;18.63;;;5.88;;
19030;SDS011;9648;51.130;13.978;2022-08-25T14:15:39;28.48;;;6.75;;
19030;SDS011;9648;51.130;13.978;2022-08-25T14:18:07;30.30;;;6.82;;
19030;SDS011;9648;51.130;13.978;2022-08-25T14:20:42;29.47;;;7.50;;
19030;SDS011;9648;51.130;13.978;2022-08-25T14:23:13;26.45;;;6.60;;
19030;SDS011;9648;51.130;13.978;2022-08-25T14:25:41;18.33;;;6.07;;
19030;SDS011;9648;51.130;13.978;2022-08-25T14:28:09;26.35;;;6.50;;
19030;SDS011;9648;51.130;13.978;2022-08-25T14:30:40;28.98;;;7.00;;
19030;SDS011;9648;51.130;13.978;2022-08-25T14:33:10;26.30;;;6.93;;
19030;SDS011;9648;51.130;13.978;2022-08-25T14:35:37;25.38;;;7.15;;
19030;SDS011;9648;51.130;13.978;2022-08-25T14:38:06;17.98;;;6.32;;
19030;SDS011;9648;51.130;13.978;2022-08-25T14:40:35;20.17;;;6.47;;
19030;SDS011;9648;51.130;13.978;2022-08-25T14:43:02;24.08;;;7.05;;
19030;SDS011;9648;51.130;13.978;2022-08-25T14:45:29;28.70;;;6.82;;
19030;SDS011;9648;51.130;13.978;2022-08-25T14:47:57;21.65;;;6.45;;
19030;SDS011;9648;51.130;13.978;2022-08-25T14:50:29;27.47;;;7.00;;
19030;SDS011;9648;51.130;13.978;2022-08-25T14:52:56;27.13;;;7.40;;
19030;SDS011;9648;51.130;13.978;2022-08-25T14:55:22;19.97;;;7.07;;
19030;SDS011;9648;51.130;13.978;2022-08-25T14:57:49;17.93;;;7.10;;
19030;SDS011;9648;51.130;13.978;2022-08-25T15:00:16;26.43;;;7.53;;